Time;durP1;ratioP1;P1;durP2;ratioP2;P2;SDS_P1;SDS_P2;PMS_P1;PMS_P2;Temp;Humidity;BMP_temperature;BMP_pressure;BME280_temperature;BME280_humidity;BME280_pressure;Samples;Min_cycle;Max_cycle;Signal;HPM_P1;HPM_P2
2021/03/15 00:00:57;;;;;;;11.67;6.13;;;;;;;;;;5017748;28;37049;-81
2021/03/15 00:03:23;;;;;;;15.47;6.53;;;;;;;;;;5024281;28;40744;-80
2021/03/15 00:05:50;;;;;;;19.70;7.33;;;;;;;;;;5021014;28;38845;-82
2021/03/15 00:08:17;;;;;;;19.97;6.03;;;;;;;;;;5020439;28;39999;-83
2021/03/15 00:10:43;;;;;;;21.27;8.50;;;;;;;;;;5026264;28;38792;-84
2021/03/15 00:13:10;;;;;;;13.00;5.17;;;;;;;;;;5026164;28;38344;-80
2021/03/15 00:15:36;;;;;;;15.87;6.27;;;;;;;;;;5023094;28;39556;-81
2021/03/15 00:18:03;;;;;;;17.30;6.40;;;;;;;;;;5033838;28;38788;-85
2021/03/15 00:20:30;;;;;;;18.33;7.53;;;;;;;;;;5045435;28;37530;-86
2021/03/15 00:22:56;;;;;;;12.57;5.47;;;;;;;;;;5036997;28;39864;-85
2021/03/15 00:25:22;;;;;;;17.77;5.63;;;;;;;;;;5017218;28;38761;-83
2021/03/15 00:27:49;;;;;;;13.57;5.30;;;;;;;;;;5019077;28;38148;-85
2021/03/15 00:30:17;;;;;;;16.97;6.10;;;;;;;;;;5016689;28;36778;-85
2021/03/15 00:32:45;;;;;;;15.53;5.90;;;;;;;;;;5045770;28;38111;-79
2021/03/15 00:35:12;;;;;;;21.37;7.00;;;;;;;;;;5016729;28;37695;-84
2021/03/15 00:37:39;;;;;;;17.90;6.93;;;;;;;;;;5033345;28;39038;-86
2021/03/15 00:40:07;;;;;;;21.27;6.97;;;;;;;;;;5047643;28;37501;-83
2021/03/15 00:42:33;;;;;;;16.60;6.90;;;;;;;;;;5028010;28;40738;-83
2021/03/15 00:45:00;;;;;;;17.43;5.20;;;;;;;;;;5020346;28;39645;-81
2021/03/15 00:47:26;;;;;;;20.30;4.57;;;;;;;;;;5031911;28;38771;-79
2021/03/15 00:49:53;;;;;;;21.83;5.27;;;;;;;;;;5043385;28;38153;-79
2021/03/15 00:52:19;;;;;;;18.77;6.10;;;;;;;;;;5043300;27;39916;-85
2021/03/15 00:54:46;;;;;;;22.53;5.43;;;;;;;;;;5052229;27;37944;-77
2021/03/15 00:57:12;;;;;;;23.90;5.43;;;;;;;;;;5049956;27;39049;-79
2021/03/15 00:59:38;;;;;;;19.97;6.07;;;;;;;;;;5040873;27;36823;-79
2021/03/15 01:02:05;;;;;;;16.63;6.30;;;;;;;;;;5053794;27;39871;-78
2021/03/15 01:04:31;;;;;;;18.43;6.37;;;;;;;;;;5049970;28;40767;-78
2021/03/15 01:06:57;;;;;;;17.37;7.00;;;;;;;;;;5024149;28;38839;-79
2021/03/15 01:09:24;;;;;;;18.70;7.17;;;;;;;;;;5035093;28;38725;-79
2021/03/15 01:11:50;;;;;;;24.73;6.70;;;;;;;;;;5030355;28;39218;-80
2021/03/15 01:14:17;;;;;;;22.80;6.90;;;;;;;;;;5048830;28;37611;-81
2021/03/15 01:16:44;;;;;;;20.67;6.03;;;;;;;;;;5050171;28;37069;-81
2021/03/15 01:19:10;;;;;;;17.97;5.60;;;;;;;;;;5045759;28;37095;-78
2021/03/15 01:21:36;;;;;;;12.73;5.47;;;;;;;;;;5041878;28;39423;-80
2021/03/15 01:24:03;;;;;;;15.90;5.70;;;;;;;;;;5056265;27;39264;-78
2021/03/15 01:26:29;;;;;;;15.63;7.07;;;;;;;;;;5053352;27;37416;-83
2021/03/15 01:28:56;;;;;;;14.13;5.33;;;;;;;;;;5057428;28;37638;-79
2021/03/15 01:31:22;;;;;;;16.13;5.67;;;;;;;;;;5039511;27;38034;-83
2021/03/15 01:33:48;;;;;;;18.43;5.53;;;;;;;;;;5048662;28;38427;-82
2021/03/15 01:36:15;;;;;;;15.23;5.70;;;;;;;;;;5022213;28;36785;-79
2021/03/15 01:38:41;;;;;;;21.83;6.97;;;;;;;;;;5029104;28;37728;-80
2021/03/15 01:41:08;;;;;;;18.03;5.53;;;;;;;;;;5033307;28;37809;-78
2021/03/15 01:43:35;;;;;;;19.10;6.27;;;;;;;;;;5030907;28;39645;-85
2021/03/15 01:46:02;;;;;;;17.97;6.07;;;;;;;;;;5033720;28;40232;-82
2021/03/15 01:48:28;;;;;;;22.27;6.50;;;;;;;;;;5021979;28;37832;-80
2021/03/15 01:50:55;;;;;;;13.87;5.33;;;;;;;;;;5032084;28;40915;-83
2021/03/15 01:53:21;;;;;;;19.40;5.63;;;;;;;;;;5022871;28;38955;-80
2021/03/15 01:55:48;;;;;;;12.17;4.73;;;;;;;;;;5024894;28;38881;-82
2021/03/15 01:58:15;;;;;;;12.70;4.53;;;;;;;;;;5019615;28;38164;-85
2021/03/15 02:00:42;;;;;;;14.33;4.90;;;;;;;;;;5015531;28;39303;-84
2021/03/15 02:03:09;;;;;;;14.40;4.20;;;;;;;;;;5019943;28;38730;-82
2021/03/15 02:05:36;;;;;;;10.17;4.10;;;;;;;;;;5029026;28;38378;-83
2021/03/15 02:08:04;;;;;;;13.50;4.30;;;;;;;;;;5032668;28;37690;-82
2021/03/15 02:10:30;;;;;;;13.20;4.73;;;;;;;;;;5026375;28;39070;-81
2021/03/15 02:13:15;;;;;;;17.97;4.37;;;;;;;;;;5026742;28;38575;-82
2021/03/15 02:15:42;;;;;;;21.00;4.70;;;;;;;;;;5020674;28;46862;-80
2021/03/15 02:18:20;;;;;;;11.83;3.90;;;;;;;;;;5029248;28;37672;-84
2021/03/15 02:21:06;;;;;;;15.13;4.80;;;;;;;;;;5035149;28;39357;-81
2021/03/15 02:23:36;;;;;;;16.10;5.30;;;;;;;;;;5025651;28;38562;-78
2021/03/15 02:26:11;;;;;;;14.90;5.13;;;;;;;;;;5026799;27;39779;-80
2021/03/15 02:28:43;;;;;;;12.50;4.73;;;;;;;;;;5053547;27;47232;-79
2021/03/15 02:31:24;;;;;;;14.20;4.13;;;;;;;;;;5049369;28;38818;-79
2021/03/15 02:34:09;;;;;;;14.53;5.27;;;;;;;;;;5048640;28;38956;-81
2021/03/15 02:36:38;;;;;;;14.53;4.80;;;;;;;;;;5019376;28;38973;-79
2021/03/15 02:39:06;;;;;;;16.10;4.87;;;;;;;;;;5010988;28;37913;-79
2021/03/15 02:41:34;;;;;;;16.00;5.13;;;;;;;;;;5031632;28;40928;-79
2021/03/15 02:44:03;;;;;;;16.47;5.20;;;;;;;;;;5030946;28;38814;-79
2021/03/15 02:46:30;;;;;;;13.20;4.63;;;;;;;;;;5014662;28;38984;-78
2021/03/15 02:48:58;;;;;;;12.10;5.60;;;;;;;;;;5022219;28;37871;-78
2021/03/15 02:51:26;;;;;;;14.47;5.57;;;;;;;;;;5020949;28;41044;-81
2021/03/15 02:53:53;;;;;;;16.07;5.97;;;;;;;;;;5030893;28;40049;-79
2021/03/15 02:56:20;;;;;;;16.87;5.93;;;;;;;;;;5032711;28;38191;-78
2021/03/15 02:58:49;;;;;;;19.20;5.50;;;;;;;;;;5023346;28;38497;-79
2021/03/15 03:01:19;;;;;;;10.97;4.20;;;;;;;;;;5013769;28;40001;-81
2021/03/15 03:03:50;;;;;;;17.37;4.63;;;;;;;;;;5023387;28;38644;-81
2021/03/15 03:06:18;;;;;;;14.47;4.70;;;;;;;;;;5021690;28;38418;-80
2021/03/15 03:08:46;;;;;;;16.27;4.93;;;;;;;;;;5031909;28;37522;-81
2021/03/15 03:11:13;;;;;;;16.13;4.23;;;;;;;;;;5020926;28;39858;-80
2021/03/15 03:13:42;;;;;;;16.20;4.20;;;;;;;;;;5025691;28;37227;-80
2021/03/15 03:16:08;;;;;;;12.47;3.70;;;;;;;;;;5031531;28;41074;-80
2021/03/15 03:18:35;;;;;;;14.87;3.27;;;;;;;;;;5024073;28;37376;-76
2021/03/15 03:21:02;;;;;;;11.43;3.67;;;;;;;;;;5026072;28;40794;-80
2021/03/15 03:23:31;;;;;;;12.80;3.70;;;;;;;;;;5008283;28;49269;-84
2021/03/15 03:25:58;;;;;;;16.87;4.00;;;;;;;;;;5017333;28;40089;-80
2021/03/15 03:28:25;;;;;;;16.67;4.00;;;;;;;;;;5028076;28;36801;-80
2021/03/15 03:30:52;;;;;;;16.47;5.00;;;;;;;;;;5017570;28;39651;-80
2021/03/15 03:33:18;;;;;;;16.43;5.23;;;;;;;;;;5023938;28;38927;-78
2021/03/15 03:35:45;;;;;;;18.10;5.30;;;;;;;;;;5021387;28;38699;-81
2021/03/15 03:38:11;;;;;;;18.73;4.83;;;;;;;;;;5018364;28;38264;-78
2021/03/15 03:40:38;;;;;;;16.70;5.23;;;;;;;;;;5027989;28;40721;-79
2021/03/15 03:43:04;;;;;;;14.73;5.37;;;;;;;;;;5021515;28;38344;-77
2021/03/15 03:45:31;;;;;;;16.77;4.87;;;;;;;;;;5030570;28;38431;-78
2021/03/15 03:47:57;;;;;;;16.47;5.27;;;;;;;;;;5023444;28;38020;-78
2021/03/15 03:50:25;;;;;;;16.23;5.47;;;;;;;;;;5031349;28;37610;-80
2021/03/15 03:52:51;;;;;;;23.67;6.50;;;;;;;;;;5021056;28;38641;-79
2021/03/15 03:55:19;;;;;;;17.77;5.80;;;;;;;;;;5022708;28;38852;-78
2021/03/15 03:57:47;;;;;;;18.57;5.63;;;;;;;;;;5022289;28;36806;-79
2021/03/15 04:00:14;;;;;;;24.93;5.90;;;;;;;;;;5028498;28;40853;-77
2021/03/15 04:02:44;;;;;;;20.00;6.20;;;;;;;;;;5039463;28;39612;-78
2021/03/15 04:05:14;;;;;;;22.33;7.00;;;;;;;;;;5052389;28;39358;-79
2021/03/15 04:07:44;;;;;;;11.20;5.40;;;;;;;;;;5057765;28;37651;-77
2021/03/15 04:10:12;;;;;;;11.63;4.67;;;;;;;;;;5054669;28;39557;-78
2021/03/15 04:12:44;;;;;;;11.70;4.90;;;;;;;;;;5049629;28;47191;-79
2021/03/15 04:15:11;;;;;;;18.13;5.47;;;;;;;;;;5054457;28;38934;-78
2021/03/15 04:17:40;;;;;;;21.10;4.87;;;;;;;;;;5040330;28;37031;-78
2021/03/15 04:20:07;;;;;;;15.80;5.13;;;;;;;;;;5044260;28;40403;-78
2021/03/15 04:22:40;;;;;;;26.60;6.00;;;;;;;;;;5044980;28;38872;-78
2021/03/15 04:25:07;;;;;;;14.70;4.67;;;;;;;;;;5036881;28;39112;-79
2021/03/15 04:27:34;;;;;;;21.93;5.13;;;;;;;;;;5047924;27;37671;-79
2021/03/15 04:30:01;;;;;;;17.80;4.80;;;;;;;;;;5055816;28;40454;-79
2021/03/15 04:32:28;;;;;;;20.67;4.40;;;;;;;;;;5047733;28;38374;-78
2021/03/15 04:34:55;;;;;;;16.10;4.67;;;;;;;;;;5055067;27;39004;-78
2021/03/15 04:37:22;;;;;;;12.13;4.87;;;;;;;;;;5053006;27;35942;-80
2021/03/15 04:39:49;;;;;;;9.03;3.80;;;;;;;;;;5037901;28;38907;-78
2021/03/15 04:42:16;;;;;;;13.27;4.07;;;;;;;;;;5038878;28;38842;-79
2021/03/15 04:44:42;;;;;;;14.80;4.90;;;;;;;;;;5052565;27;36948;-79
2021/03/15 04:47:09;;;;;;;14.73;4.00;;;;;;;;;;5043702;27;37759;-79
2021/03/15 04:49:38;;;;;;;12.13;4.03;;;;;;;;;;5042624;27;39744;-78
2021/03/15 04:52:04;;;;;;;17.43;4.97;;;;;;;;;;5052388;27;40095;-79
2021/03/15 04:54:31;;;;;;;14.17;3.93;;;;;;;;;;5024070;28;39243;-76
2021/03/15 04:56:59;;;;;;;13.37;4.10;;;;;;;;;;5035526;28;34750;-79
2021/03/15 04:59:25;;;;;;;14.83;3.67;;;;;;;;;;5031578;28;39524;-83
2021/03/15 05:01:52;;;;;;;13.67;4.67;;;;;;;;;;5022022;28;39875;-78
2021/03/15 05:04:22;;;;;;;19.10;5.27;;;;;;;;;;5036035;28;38832;-75
2021/03/15 05:06:49;;;;;;;17.60;4.00;;;;;;;;;;5019750;28;36628;-79
2021/03/15 05:09:16;;;;;;;10.47;3.30;;;;;;;;;;5023199;27;38879;-79
2021/03/15 05:11:43;;;;;;;11.73;3.33;;;;;;;;;;5027746;28;37600;-77
2021/03/15 05:14:11;;;;;;;16.50;3.17;;;;;;;;;;5076993;27;39020;-78
2021/03/15 05:16:38;;;;;;;11.60;2.33;;;;;;;;;;5039695;28;38340;-81
2021/03/15 05:19:06;;;;;;;8.30;3.57;;;;;;;;;;5026144;27;38970;-76
2021/03/15 05:21:34;;;;;;;15.13;3.00;;;;;;;;;;5043626;27;40114;-78
2021/03/15 05:24:01;;;;;;;14.47;3.67;;;;;;;;;;5047445;28;38262;-77
2021/03/15 05:26:28;;;;;;;16.43;2.97;;;;;;;;;;5039433;28;37074;-80
2021/03/15 05:28:57;;;;;;;10.70;2.00;;;;;;;;;;5045803;28;40483;-77
2021/03/15 05:31:24;;;;;;;16.30;2.50;;;;;;;;;;5043228;27;37680;-79
2021/03/15 05:33:51;;;;;;;15.67;2.33;;;;;;;;;;5052622;27;38273;-78
2021/03/15 05:36:18;;;;;;;15.20;2.57;;;;;;;;;;5034411;28;36732;-78
2021/03/15 05:38:44;;;;;;;15.43;2.27;;;;;;;;;;5022774;28;39153;-79
2021/03/15 05:41:14;;;;;;;13.60;2.60;;;;;;;;;;5027441;28;38496;-78
2021/03/15 05:43:46;;;;;;;11.47;2.20;;;;;;;;;;5025386;28;38225;-78
2021/03/15 05:46:25;;;;;;;10.77;2.17;;;;;;;;;;5025667;28;36488;-77
2021/03/15 05:49:01;;;;;;;10.73;2.00;;;;;;;;;;5040140;28;39790;-78
2021/03/15 05:51:33;;;;;;;10.97;2.10;;;;;;;;;;5035290;28;47059;-76
2021/03/15 05:54:20;;;;;;;11.65;2.40;;;;;;;;;;5039695;28;37348;-77
2021/03/15 05:56:59;;;;;;;13.93;2.30;;;;;;;;;;5032763;28;48978;-77
2021/03/15 05:59:43;;;;;;;9.13;2.67;;;;;;;;;;5040797;28;40665;-78
2021/03/15 06:02:10;;;;;;;15.97;2.53;;;;;;;;;;5021958;28;39032;-77
2021/03/15 06:04:39;;;;;;;15.37;2.13;;;;;;;;;;5026432;28;38657;-75
2021/03/15 06:07:08;;;;;;;13.90;1.90;;;;;;;;;;5030939;28;37893;-79
2021/03/15 06:09:38;;;;;;;14.23;2.50;;;;;;;;;;5026186;28;38789;-77
2021/03/15 06:12:06;;;;;;;11.67;2.53;;;;;;;;;;5032440;28;38714;-78
2021/03/15 06:14:35;;;;;;;6.83;2.20;;;;;;;;;;5021067;28;40402;-77
2021/03/15 06:17:02;;;;;;;17.27;2.13;;;;;;;;;;5021365;28;37941;-75
2021/03/15 06:19:29;;;;;;;12.80;2.53;;;;;;;;;;5022041;28;48825;-77
2021/03/15 06:21:56;;;;;;;14.90;3.20;;;;;;;;;;5021103;28;38737;-77
2021/03/15 06:24:22;;;;;;;22.80;3.60;;;;;;;;;;5023090;28;38180;-77
2021/03/15 06:26:49;;;;;;;18.27;3.90;;;;;;;;;;5026456;28;36550;-75
2021/03/15 06:29:16;;;;;;;19.40;3.43;;;;;;;;;;5024936;28;39645;-75
2021/03/15 06:31:49;;;;;;;15.87;3.00;;;;;;;;;;5015171;28;38477;-77
2021/03/15 06:34:15;;;;;;;22.13;2.87;;;;;;;;;;5021586;28;38713;-75
2021/03/15 06:36:43;;;;;;;23.37;2.73;;;;;;;;;;5019078;28;35708;-78
2021/03/15 06:39:13;;;;;;;19.10;3.57;;;;;;;;;;5025739;28;39848;-79
2021/03/15 06:41:46;;;;;;;20.37;3.53;;;;;;;;;;5036707;28;38517;-76
2021/03/15 06:44:12;;;;;;;21.57;4.57;;;;;;;;;;5027069;28;39196;-78
2021/03/15 06:46:40;;;;;;;18.23;3.07;;;;;;;;;;5026748;28;38619;-78
2021/03/15 06:49:07;;;;;;;20.57;3.67;;;;;;;;;;5021229;28;39894;-77
2021/03/15 06:51:36;;;;;;;24.20;3.00;;;;;;;;;;5031540;28;39718;-79
2021/03/15 06:54:03;;;;;;;21.13;3.17;;;;;;;;;;5023889;28;38698;-78
2021/03/15 06:56:29;;;;;;;24.57;4.13;;;;;;;;;;5033393;27;37428;-78
2021/03/15 06:58:59;;;;;;;18.40;3.37;;;;;;;;;;5045095;27;39118;-78
2021/03/15 07:01:26;;;;;;;19.33;3.00;;;;;;;;;;5035758;28;38806;-80
2021/03/15 07:04:07;;;;;;;19.67;2.93;;;;;;;;;;5039690;28;36999;-78
2021/03/15 07:06:37;;;;;;;26.53;4.03;;;;;;;;;;5043459;28;47236;-76
2021/03/15 07:09:14;;;;;;;23.73;3.67;;;;;;;;;;5045942;27;40743;-76
2021/03/15 07:11:41;;;;;;;18.50;2.53;;;;;;;;;;5058846;27;40232;-80
2021/03/15 07:14:21;;;;;;;21.23;3.40;;;;;;;;;;5032303;28;39462;-77
2021/03/15 07:16:56;;;;;;;21.93;2.77;;;;;;;;;;5017060;28;37797;-76
2021/03/15 07:19:23;;;;;;;20.13;3.70;;;;;;;;;;5023439;28;39800;-76
2021/03/15 07:21:49;;;;;;;21.20;3.67;;;;;;;;;;5017365;28;39259;-75
2021/03/15 07:24:16;;;;;;;20.83;3.60;;;;;;;;;;5032164;28;38545;-78
2021/03/15 07:26:46;;;;;;;22.47;2.80;;;;;;;;;;5032261;28;36830;-78
2021/03/15 07:29:17;;;;;;;38.17;3.93;;;;;;;;;;5035172;28;39496;-77
2021/03/15 07:31:47;;;;;;;25.43;3.40;;;;;;;;;;5038444;28;38854;-79
2021/03/15 07:34:15;;;;;;;21.77;3.20;;;;;;;;;;5035865;28;38357;-79
2021/03/15 07:36:45;;;;;;;23.73;2.63;;;;;;;;;;5042773;28;37599;-79
2021/03/15 07:39:12;;;;;;;21.50;4.53;;;;;;;;;;5049256;27;37994;-77
2021/03/15 07:41:38;;;;;;;21.70;3.30;;;;;;;;;;5046511;28;37986;-76
2021/03/15 07:44:22;;;;;;;26.03;3.87;;;;;;;;;;5037791;28;37885;-79
2021/03/15 07:46:50;;;;;;;17.50;3.70;;;;;;;;;;5058988;27;36862;-76
2021/03/15 07:49:23;;;;;;;25.10;3.30;;;;;;;;;;5041842;28;39769;-76
2021/03/15 07:51:54;;;;;;;19.73;3.50;;;;;;;;;;5032317;28;39653;-79
2021/03/15 07:54:27;;;;;;;16.77;3.27;;;;;;;;;;5034515;28;38611;-78
2021/03/15 07:57:12;;;;;;;21.33;2.90;;;;;;;;;;5021588;28;36212;-76
2021/03/15 07:59:40;;;;;;;22.40;3.20;;;;;;;;;;5019954;28;47051;-77
2021/03/15 08:02:06;;;;;;;19.97;3.00;;;;;;;;;;5032578;28;38934;-76
2021/03/15 08:04:33;;;;;;;22.80;3.20;;;;;;;;;;5057832;27;38461;-78
2021/03/15 08:07:00;;;;;;;19.30;3.00;;;;;;;;;;5059379;28;37476;-78
2021/03/15 08:09:26;;;;;;;19.20;3.13;;;;;;;;;;5034900;28;40056;-76
2021/03/15 08:11:53;;;;;;;20.40;3.00;;;;;;;;;;5025633;28;38734;-76
2021/03/15 08:14:21;;;;;;;21.90;3.30;;;;;;;;;;5044978;28;37762;-75
2021/03/15 08:16:48;;;;;;;13.67;2.53;;;;;;;;;;5024057;28;37010;-79
2021/03/15 08:19:17;;;;;;;18.47;2.63;;;;;;;;;;5030274;28;37789;-79
2021/03/15 08:21:44;;;;;;;13.37;3.53;;;;;;;;;;5023012;28;38306;-76
2021/03/15 08:24:12;;;;;;;11.10;2.00;;;;;;;;;;5024826;28;39459;-78
2021/03/15 08:26:39;;;;;;;15.43;2.70;;;;;;;;;;5037964;28;37012;-77
2021/03/15 08:29:05;;;;;;;18.47;2.60;;;;;;;;;;5057691;28;39955;-78
2021/03/15 08:31:39;;;;;;;20.53;2.67;;;;;;;;;;5059570;27;40479;-76
2021/03/15 08:34:05;;;;;;;14.10;2.37;;;;;;;;;;5046894;28;39575;-79
2021/03/15 08:36:42;;;;;;;16.73;2.37;;;;;;;;;;5015634;28;37091;-78
2021/03/15 08:39:27;;;;;;;17.83;2.47;;;;;;;;;;5023717;28;39037;-80
2021/03/15 08:42:09;;;;;;;14.93;2.90;;;;;;;;;;5022844;28;38192;-75
2021/03/15 08:44:39;;;;;;;16.97;2.50;;;;;;;;;;5049770;28;47620;-76
2021/03/15 08:47:06;;;;;;;10.73;2.17;;;;;;;;;;5016811;28;36979;-74
2021/03/15 08:49:35;;;;;;;21.13;2.60;;;;;;;;;;5020984;28;37630;-77
2021/03/15 08:52:02;;;;;;;12.90;2.00;;;;;;;;;;5029153;28;37562;-75
2021/03/15 08:54:39;;;;;;;14.27;1.87;;;;;;;;;;5021779;28;38536;-76
2021/03/15 08:57:06;;;;;;;18.27;2.00;;;;;;;;;;5026024;28;37156;-76
2021/03/15 08:59:33;;;;;;;13.63;1.83;;;;;;;;;;5023030;28;35741;-77
2021/03/15 09:02:04;;;;;;;13.07;2.77;;;;;;;;;;5026432;28;38615;-76
2021/03/15 09:04:42;;;;;;;18.17;2.77;;;;;;;;;;5018510;28;47662;-78
2021/03/15 09:07:28;;;;;;;15.33;2.70;;;;;;;;;;5018570;28;37454;-78
2021/03/15 09:09:55;;;;;;;16.07;2.70;;;;;;;;;;5025264;28;39365;-77
2021/03/15 09:12:21;;;;;;;16.53;3.07;;;;;;;;;;5035670;28;39437;-77
2021/03/15 09:14:55;;;;;;;19.30;3.10;;;;;;;;;;5029607;28;38578;-77
2021/03/15 09:17:21;;;;;;;10.57;2.17;;;;;;;;;;5019642;28;36847;-76
2021/03/15 09:19:48;;;;;;;12.23;2.17;;;;;;;;;;5034142;28;40480;-79
2021/03/15 09:22:30;;;;;;;7.93;1.40;;;;;;;;;;5023647;28;39274;-76
2021/03/15 09:24:57;;;;;;;9.13;1.53;;;;;;;;;;5025255;28;39558;-76
2021/03/15 09:27:32;;;;;;;8.50;1.50;;;;;;;;;;5036959;28;36722;-77
2021/03/15 09:29:58;;;;;;;8.80;1.40;;;;;;;;;;5044668;28;38609;-78
2021/03/15 09:32:51;;;;;;;11.10;2.13;;;;;;;;;;5057244;27;39212;-77
2021/03/15 09:35:19;;;;;;;11.27;2.28;;;;;;;;;;5037128;28;37025;-75
2021/03/15 09:37:56;;;;;;;11.10;2.80;;;;;;;;;;5045952;28;37210;-77
2021/03/15 09:40:24;;;;;;;9.30;2.27;;;;;;;;;;5052352;27;42630;-76
2021/03/15 09:42:50;;;;;;;16.83;3.10;;;;;;;;;;5039555;28;39621;-75
2021/03/15 09:45:26;;;;;;;11.37;2.10;;;;;;;;;;5040044;28;38988;-76
2021/03/15 09:47:53;;;;;;;19.33;2.33;;;;;;;;;;5038678;28;38086;-77
2021/03/15 09:50:23;;;;;;;17.33;1.77;;;;;;;;;;5024713;28;39762;-75
2021/03/15 09:52:50;;;;;;;10.30;1.60;;;;;;;;;;5018306;28;39585;-76
2021/03/15 09:55:16;;;;;;;11.83;1.90;;;;;;;;;;5017897;28;39044;-77
2021/03/15 09:57:43;;;;;;;15.27;2.07;;;;;;;;;;5017052;28;37569;-77
2021/03/15 10:00:11;;;;;;;10.17;1.70;;;;;;;;;;5022699;28;39141;-76
2021/03/15 10:02:37;;;;;;;12.47;2.33;;;;;;;;;;5018233;28;38707;-75
2021/03/15 10:05:04;;;;;;;9.47;1.83;;;;;;;;;;5018144;28;38274;-76
2021/03/15 10:07:31;;;;;;;13.47;1.93;;;;;;;;;;5027965;28;37441;-76
2021/03/15 10:09:57;;;;;;;9.97;1.53;;;;;;;;;;5018245;28;40987;-77
2021/03/15 10:12:25;;;;;;;12.60;1.90;;;;;;;;;;5020140;28;38779;-77
2021/03/15 10:15:07;;;;;;;10.30;1.87;;;;;;;;;;5031431;28;38308;-77
2021/03/15 10:17:33;;;;;;;12.95;2.17;;;;;;;;;;5021050;28;48638;-78
2021/03/15 10:20:00;;;;;;;14.20;1.90;;;;;;;;;;5029791;28;40617;-76
2021/03/15 10:22:27;;;;;;;16.40;2.47;;;;;;;;;;5016797;28;38672;-77
2021/03/15 10:24:53;;;;;;;10.67;1.63;;;;;;;;;;5016979;28;40197;-75
2021/03/15 10:27:20;;;;;;;9.17;2.33;;;;;;;;;;5026869;28;38913;-78
2021/03/15 10:30:05;;;;;;;13.97;2.10;;;;;;;;;;5023139;28;39451;-78
2021/03/15 10:32:31;;;;;;;9.83;2.60;;;;;;;;;;5014117;28;48730;-79
2021/03/15 10:35:02;;;;;;;10.67;1.50;;;;;;;;;;5023972;28;37776;-79
2021/03/15 10:37:31;;;;;;;15.23;2.57;;;;;;;;;;5052394;28;36747;-78
2021/03/15 10:39:58;;;;;;;13.33;1.90;;;;;;;;;;5042193;28;38830;-80
2021/03/15 10:42:24;;;;;;;12.77;1.87;;;;;;;;;;5050994;28;40131;-79
2021/03/15 10:44:52;;;;;;;21.40;2.33;;;;;;;;;;5035991;28;39230;-79
2021/03/15 10:47:31;;;;;;;13.17;2.10;;;;;;;;;;5050543;28;36156;-78
2021/03/15 10:49:58;;;;;;;12.27;2.10;;;;;;;;;;5036690;28;37734;-81
2021/03/15 10:52:32;;;;;;;16.00;2.93;;;;;;;;;;5053350;27;39877;-76
2021/03/15 10:55:17;;;;;;;15.37;2.50;;;;;;;;;;5046618;27;37652;-79
2021/03/15 10:58:02;;;;;;;21.27;2.83;;;;;;;;;;5056048;28;47045;-75
2021/03/15 11:00:30;;;;;;;12.93;2.23;;;;;;;;;;5054415;27;47274;-77
2021/03/15 11:02:56;;;;;;;17.17;2.63;;;;;;;;;;5052941;28;39950;-76
2021/03/15 11:05:23;;;;;;;13.37;1.90;;;;;;;;;;5036628;28;38907;-75
2021/03/15 11:07:51;;;;;;;10.40;2.10;;;;;;;;;;5040833;28;38259;-74
2021/03/15 11:10:18;;;;;;;13.87;2.07;;;;;;;;;;5019655;28;39920;-77
2021/03/15 11:12:46;;;;;;;13.83;1.70;;;;;;;;;;5023026;28;39471;-75
2021/03/15 11:15:19;;;;;;;13.23;2.00;;;;;;;;;;5023055;28;38455;-75
2021/03/15 11:18:19;;;;;;;16.98;2.15;;;;;;;;;;5037826;28;37367;-75
2021/03/15 11:21:00;;;;;;;18.63;2.20;;;;;;;;;;4986992;28;47745;-77
2021/03/15 11:23:34;;;;;;;17.93;2.30;;;;;;;;;;5046946;28;37640;-76
2021/03/15 11:26:06;;;;;;;15.07;2.30;;;;;;;;;;5027216;28;39920;-86
2021/03/15 11:28:34;;;;;;;11.50;2.22;;;;;;;;;;5037523;27;47241;-81
2021/03/15 11:31:00;;;;;;;13.73;1.87;;;;;;;;;;5038122;28;40613;-85
2021/03/15 11:33:30;;;;;;;14.97;1.77;;;;;;;;;;5035846;28;38927;-82
2021/03/15 11:36:14;;;;;;;11.07;1.57;;;;;;;;;;5027519;28;39153;-78
2021/03/15 11:38:47;;;;;;;11.13;2.10;;;;;;;;;;5025705;28;48741;-87
2021/03/15 11:41:17;;;;;;;16.52;2.67;;;;;;;;;;5028593;28;39718;-82
2021/03/15 11:43:43;;;;;;;11.00;1.77;;;;;;;;;;5031302;28;38961;-83
2021/03/15 11:46:10;;;;;;;10.23;1.70;;;;;;;;;;5020579;28;39183;-82
2021/03/15 11:48:36;;;;;;;10.87;1.67;;;;;;;;;;5011257;28;36802;-84
2021/03/15 11:51:04;;;;;;;10.40;1.53;;;;;;;;;;5023300;28;39839;-81
2021/03/15 11:53:30;;;;;;;12.20;1.80;;;;;;;;;;5045258;28;38760;-85
2021/03/15 11:55:57;;;;;;;14.47;1.83;;;;;;;;;;5030265;28;37859;-80
2021/03/15 11:58:23;;;;;;;6.93;1.30;;;;;;;;;;5049093;28;37777;-84
2021/03/15 12:00:49;;;;;;;9.80;1.53;;;;;;;;;;5038380;28;39748;-79
2021/03/15 12:03:16;;;;;;;8.52;1.50;;;;;;;;;;5042773;28;38339;-80
2021/03/15 12:05:42;;;;;;;7.90;1.50;;;;;;;;;;5039312;28;38668;-80
2021/03/15 12:08:08;;;;;;;14.93;1.67;;;;;;;;;;5035988;28;36950;-79
2021/03/15 12:10:36;;;;;;;15.70;2.07;;;;;;;;;;5033331;28;37968;-78
2021/03/15 12:13:02;;;;;;;13.98;1.95;;;;;;;;;;5049577;28;39100;-77
2021/03/15 12:15:29;;;;;;;9.15;1.50;;;;;;;;;;5040419;28;38511;-77
2021/03/15 12:17:55;;;;;;;9.20;1.77;;;;;;;;;;5049885;28;38393;-78
2021/03/15 12:20:22;;;;;;;10.43;1.67;;;;;;;;;;5047938;27;37833;-80
2021/03/15 12:22:49;;;;;;;10.60;1.63;;;;;;;;;;5060900;28;20069;-83
2021/03/15 12:25:16;;;;;;;16.30;2.17;;;;;;;;;;5073218;27;38806;-79
2021/03/15 12:27:42;;;;;;;10.30;2.38;;;;;;;;;;5042071;28;37146;-78
2021/03/15 12:30:09;;;;;;;18.27;2.57;;;;;;;;;;5044139;28;38935;-80
2021/03/15 12:32:35;;;;;;;13.80;2.00;;;;;;;;;;5043838;28;38773;-81
2021/03/15 12:35:02;;;;;;;11.77;2.28;;;;;;;;;;5038117;28;38097;-80
2021/03/15 12:37:28;;;;;;;11.88;2.17;;;;;;;;;;5035262;28;48701;-86
2021/03/15 12:39:54;;;;;;;18.05;2.40;;;;;;;;;;5042837;28;38209;-80
2021/03/15 12:42:21;;;;;;;17.47;2.23;;;;;;;;;;5046642;27;37274;-79
2021/03/15 12:44:47;;;;;;;18.70;2.22;;;;;;;;;;5036022;28;39852;-78
2021/03/15 12:47:14;;;;;;;12.20;2.40;;;;;;;;;;5039766;28;37843;-79
2021/03/15 12:49:41;;;;;;;12.63;2.30;;;;;;;;;;5035069;28;40112;-78
2021/03/15 12:52:07;;;;;;;16.63;2.23;;;;;;;;;;5037474;28;39120;-78
2021/03/15 12:54:34;;;;;;;20.63;2.37;;;;;;;;;;5040449;28;39714;-81
2021/03/15 12:57:00;;;;;;;9.37;2.10;;;;;;;;;;5018236;28;36692;-79
2021/03/15 12:59:27;;;;;;;13.47;2.27;;;;;;;;;;5010037;28;48186;-85
2021/03/15 13:01:53;;;;;;;14.47;3.03;;;;;;;;;;5037573;28;39149;-79
2021/03/15 13:04:20;;;;;;;11.27;2.25;;;;;;;;;;5016009;28;38157;-84
2021/03/15 13:06:46;;;;;;;10.55;2.10;;;;;;;;;;5032040;28;38076;-79
2021/03/15 13:09:13;;;;;;;9.68;2.30;;;;;;;;;;5016908;28;38331;-81
2021/03/15 13:11:39;;;;;;;17.30;2.07;;;;;;;;;;5022760;28;38956;-79
2021/03/15 13:14:05;;;;;;;13.57;1.93;;;;;;;;;;5020782;28;39947;-80
2021/03/15 13:16:32;;;;;;;14.30;2.17;;;;;;;;;;5036584;28;38385;-78
2021/03/15 13:18:58;;;;;;;15.50;2.77;;;;;;;;;;5014272;28;38387;-81
2021/03/15 13:21:24;;;;;;;16.80;2.37;;;;;;;;;;5019700;28;37349;-82
2021/03/15 13:23:51;;;;;;;13.32;2.42;;;;;;;;;;5022808;28;38761;-79
2021/03/15 13:26:18;;;;;;;14.95;2.35;;;;;;;;;;5021891;28;37519;-83
2021/03/15 13:28:44;;;;;;;22.27;2.90;;;;;;;;;;5016073;28;40019;-77
2021/03/15 13:31:11;;;;;;;12.53;2.23;;;;;;;;;;5019820;28;38725;-84
2021/03/15 13:33:37;;;;;;;16.93;2.40;;;;;;;;;;5017962;28;39145;-81
2021/03/15 13:36:04;;;;;;;19.40;2.67;;;;;;;;;;5032859;28;36638;-81
2021/03/15 13:38:30;;;;;;;17.47;2.57;;;;;;;;;;5014505;28;39585;-84
2021/03/15 13:40:57;;;;;;;9.83;2.10;;;;;;;;;;5029159;28;37891;-85
2021/03/15 13:43:25;;;;;;;17.93;3.00;;;;;;;;;;5036873;28;38404;-84
2021/03/15 13:45:51;;;;;;;20.23;3.37;;;;;;;;;;5034468;28;37695;-80
2021/03/15 13:48:18;;;;;;;17.77;2.90;;;;;;;;;;5019872;28;39142;-82
2021/03/15 13:50:44;;;;;;;15.73;2.90;;;;;;;;;;5022957;28;40231;-82
2021/03/15 13:53:11;;;;;;;15.27;2.87;;;;;;;;;;5025499;28;38353;-82
2021/03/15 13:55:37;;;;;;;20.03;2.90;;;;;;;;;;5022679;28;37499;-82
2021/03/15 13:58:03;;;;;;;22.40;3.10;;;;;;;;;;5022047;28;38504;-84
2021/03/15 14:00:30;;;;;;;19.20;3.30;;;;;;;;;;5054647;28;40052;-79
2021/03/15 14:02:57;;;;;;;16.13;2.70;;;;;;;;;;5065736;28;47156;-79
2021/03/15 14:05:23;;;;;;;18.57;3.30;;;;;;;;;;5055870;28;37824;-82
2021/03/15 14:07:50;;;;;;;19.60;3.33;;;;;;;;;;5041249;28;39222;-85
2021/03/15 14:10:16;;;;;;;21.13;2.60;;;;;;;;;;5036738;28;39711;-84
2021/03/15 14:12:43;;;;;;;14.00;3.17;;;;;;;;;;5041599;28;39313;-83
2021/03/15 14:15:10;;;;;;;23.53;3.50;;;;;;;;;;5023455;28;35730;-86
2021/03/15 14:17:37;;;;;;;18.07;2.87;;;;;;;;;;5028301;28;39030;-85
2021/03/15 14:20:07;;;;;;;15.57;3.13;;;;;;;;;;5032106;28;38365;-81
2021/03/15 14:22:33;;;;;;;23.03;3.23;;;;;;;;;;5022330;28;38817;-79
2021/03/15 14:24:59;;;;;;;23.17;3.73;;;;;;;;;;5023182;28;37308;-84
2021/03/15 14:27:26;;;;;;;22.13;3.40;;;;;;;;;;5023444;28;39318;-81
2021/03/15 14:29:55;;;;;;;17.00;3.33;;;;;;;;;;5033622;28;39203;-82
2021/03/15 14:32:21;;;;;;;16.93;2.90;;;;;;;;;;5025226;28;37940;-83
2021/03/15 14:34:47;;;;;;;18.40;2.87;;;;;;;;;;5021693;28;36947;-83
2021/03/15 14:37:14;;;;;;;15.70;3.60;;;;;;;;;;5021627;28;38577;-83
2021/03/15 14:39:40;;;;;;;26.63;3.43;;;;;;;;;;5023689;28;40200;-85